Time;durP1;ratioP1;P1;durP2;ratioP2;P2;SDS_P1;SDS_P2;PMS_P1;PMS_P2;Temp;Humidity;BMP_temperature;BMP_pressure;BME280_temperature;BME280_humidity;BME280_pressure;Samples;Min_cycle;Max_cycle;Signal;HPM_P1;HPM_P2
2022/10/06 00:01:51;;;;;;;5.33;3.03;;;15.30;39.40;;;;;;10483717;28;20228;-78
2022/10/06 00:06:56;;;;;;;2.70;2.40;;;15.30;39.40;;;;;;10482118;28;20231;-79
2022/10/06 00:11:59;;;;;;;3.97;2.93;;;15.20;39.40;;;;;;10479901;28;20232;-79
2022/10/06 00:17:02;;;;;;;3.17;2.80;;;15.20;39.20;;;;;;10481392;28;20228;-79
2022/10/06 00:22:07;;;;;;;2.70;2.50;;;15.10;39.20;;;;;;10475099;28;20331;-79
2022/10/06 00:27:10;;;;;;;2.47;2.27;;;15.10;39.50;;;;;;10473736;28;20225;-79
2022/10/06 00:32:13;;;;;;;3.83;2.80;;;15.00;39.30;;;;;;10473045;28;20241;-78
2022/10/06 00:37:17;;;;;;;2.37;2.17;;;15.00;39.30;;;;;;10478427;28;20649;-79
2022/10/06 00:42:23;;;;;;;2.57;2.37;;;14.90;39.40;;;;;;10472660;28;20229;-79
2022/10/06 00:47:31;;;;;;;2.60;2.30;;;14.90;39.60;;;;;;10475240;28;20232;-79
2022/10/06 00:52:36;;;;;;;4.17;2.53;;;14.90;39.50;;;;;;10467593;28;20229;-79
2022/10/06 00:57:40;;;;;;;3.40;2.67;;;14.80;39.60;;;;;;10468406;28;20225;-79
2022/10/06 01:02:48;;;;;;;2.07;1.97;;;14.70;39.30;;;;;;10470316;28;20282;-79
2022/10/06 01:07:53;;;;;;;2.07;1.93;;;14.70;39.50;;;;;;10479970;28;20257;-79
2022/10/06 01:12:57;;;;;;;4.90;2.50;;;14.60;39.40;;;;;;10474943;28;20233;-79
2022/10/06 01:18:05;;;;;;;2.53;2.33;;;14.50;39.30;;;;;;10472092;28;20235;-79
2022/10/06 01:23:10;;;;;;;2.60;2.40;;;14.40;39.60;;;;;;10473326;28;20283;-79
2022/10/06 01:28:14;;;;;;;3.30;2.60;;;14.30;39.60;;;;;;10480182;28;20228;-79
2022/10/06 01:33:18;;;;;;;6.27;2.97;;;14.20;39.50;;;;;;10472863;28;20224;-79
2022/10/06 01:38:23;;;;;;;2.80;2.60;;;14.20;39.70;;;;;;10474798;28;20247;-79
2022/10/06 01:43:26;;;;;;;4.83;2.60;;;14.10;40.10;;;;;;10473373;28;20231;-79
2022/10/06 01:48:29;;;;;;;3.93;3.10;;;14.00;39.90;;;;;;10464605;28;20240;-79
2022/10/06 01:53:35;;;;;;;3.27;2.77;;;14.00;40.00;;;;;;10473428;28;20295;-79
2022/10/06 01:58:38;;;;;;;3.40;2.90;;;14.00;40.30;;;;;;10469644;28;20236;-79
2022/10/06 02:03:42;;;;;;;2.80;2.60;;;14.00;39.90;;;;;;10473370;28;20233;-79
2022/10/06 02:08:46;;;;;;;5.23;2.77;;;14.00;39.90;;;;;;10473381;28;20232;-79
2022/10/06 02:13:49;;;;;;;3.13;2.90;;;13.90;39.90;;;;;;10474923;28;20229;-79
2022/10/06 02:18:53;;;;;;;2.87;2.67;;;13.90;39.80;;;;;;10482079;28;20238;-79
2022/10/06 02:23:57;;;;;;;2.57;2.37;;;13.80;39.80;;;;;;10469582;28;20257;-79
2022/10/06 02:29:01;;;;;;;2.30;2.10;;;13.80;40.10;;;;;;10475852;28;20221;-78
2022/10/06 02:34:04;;;;;;;2.63;2.10;;;13.70;39.90;;;;;;10470416;28;20220;-79
2022/10/06 02:39:08;;;;;;;2.30;2.10;;;13.70;39.80;;;;;;10467708;28;20529;-79
2022/10/06 02:44:11;;;;;;;2.03;1.90;;;13.60;40.00;;;;;;10471655;28;20228;-79
2022/10/06 02:49:15;;;;;;;2.37;2.17;;;13.60;40.00;;;;;;10481890;28;20720;-79
2022/10/06 02:54:19;;;;;;;2.77;2.57;;;13.60;40.10;;;;;;10469560;28;20231;-79
2022/10/06 02:59:23;;;;;;;3.00;2.70;;;13.60;40.40;;;;;;10464145;28;20601;-79
2022/10/06 03:04:26;;;;;;;2.73;2.53;;;13.60;40.30;;;;;;10470781;28;20236;-79
2022/10/06 03:09:30;;;;;;;2.27;2.10;;;13.60;40.30;;;;;;10467040;28;20283;-79
2022/10/06 03:14:34;;;;;;;3.37;2.50;;;13.50;40.50;;;;;;10477892;28;20816;-79
2022/10/06 03:19:37;;;;;;;2.60;2.40;;;13.50;40.30;;;;;;10470214;28;20233;-79
2022/10/06 03:24:42;;;;;;;3.47;2.43;;;13.50;40.30;;;;;;10471376;28;20224;-79
2022/10/06 03:29:46;;;;;;;3.70;2.87;;;13.40;40.40;;;;;;10470044;28;20256;-80
2022/10/06 03:34:49;;;;;;;5.13;3.17;;;13.40;40.30;;;;;;10472856;28;20248;-79
2022/10/06 03:39:54;;;;;;;3.10;2.60;;;13.30;40.40;;;;;;10477619;28;20225;-79
2022/10/06 03:44:57;;;;;;;3.87;2.93;;;13.30;40.70;;;;;;10470567;28;20225;-79
2022/10/06 03:50:00;;;;;;;3.93;3.40;;;13.30;40.50;;;;;;10468779;28;20294;-79
2022/10/06 03:55:05;;;;;;;2.80;2.60;;;13.20;40.40;;;;;;10472658;28;20224;-80
2022/10/06 04:00:09;;;;;;;5.00;2.90;;;13.20;40.80;;;;;;10470196;28;20228;-79
2022/10/06 04:05:13;;;;;;;3.03;2.83;;;13.20;40.70;;;;;;10469049;28;20235;-79
2022/10/06 04:10:17;;;;;;;2.87;2.47;;;13.20;40.60;;;;;;10478807;28;20229;-79
2022/10/06 04:15:20;;;;;;;2.97;2.77;;;13.20;40.80;;;;;;10478292;28;20233;-79
2022/10/06 04:20:23;;;;;;;4.17;2.77;;;13.30;40.60;;;;;;10480309;28;20616;-79
2022/10/06 04:25:28;;;;;;;3.33;2.67;;;13.20;40.30;;;;;;10481294;28;20323;-79
2022/10/06 04:30:31;;;;;;;3.17;2.90;;;13.20;40.60;;;;;;10475173;28;20236;-79
2022/10/06 04:35:34;;;;;;;4.30;3.80;;;13.20;40.50;;;;;;10479756;28;20228;-79
2022/10/06 04:40:39;;;;;;;3.63;2.93;;;13.20;40.60;;;;;;10479855;28;20243;-79
2022/10/06 04:45:42;;;;;;;4.33;3.77;;;13.20;40.90;;;;;;10485226;28;20274;-79
2022/10/06 04:50:53;;;;;;;3.87;3.40;;;13.10;40.50;;;;;;10486037;28;20243;-79
2022/10/06 04:56:03;;;;;;;4.50;4.10;;;13.10;40.90;;;;;;10486639;28;20228;-80
2022/10/06 05:01:13;;;;;;;6.33;4.13;;;13.00;40.80;;;;;;10486625;28;20747;-79
2022/10/06 05:06:18;;;;;;;4.67;4.17;;;13.00;41.10;;;;;;10477365;28;20788;-80
2022/10/06 05:11:24;;;;;;;4.70;4.13;;;13.00;40.90;;;;;;10479425;28;20245;-80
2022/10/06 05:16:29;;;;;;;4.53;4.10;;;12.90;41.00;;;;;;10475534;28;20324;-80
2022/10/06 05:21:33;;;;;;;5.13;3.43;;;12.90;41.30;;;;;;10489227;28;20625;-80
2022/10/06 05:26:38;;;;;;;5.77;4.97;;;12.90;42.50;;;;;;10487226;28;20282;-79
2022/10/06 05:31:42;;;;;;;7.77;5.90;;;13.00;42.60;;;;;;10476988;28;20231;-79
2022/10/06 05:36:45;;;;;;;5.23;4.73;;;13.00;41.70;;;;;;10474360;28;20233;-79
2022/10/06 05:41:50;;;;;;;6.67;5.20;;;13.00;41.50;;;;;;10475435;28;20281;-79
2022/10/06 05:46:53;;;;;;;6.17;5.33;;;13.00;41.40;;;;;;10472982;28;20225;-79
2022/10/06 05:51:56;;;;;;;6.50;5.60;;;13.00;41.10;;;;;;10482463;28;20228;-80
2022/10/06 05:57:01;;;;;;;9.13;6.60;;;13.00;41.10;;;;;;10478374;28;20233;-80
2022/10/06 06:02:04;;;;;;;7.53;6.80;;;12.90;41.60;;;;;;10470891;28;20287;-80
2022/10/06 06:07:09;;;;;;;6.13;5.63;;;12.80;41.60;;;;;;10478377;28;20261;-80
2022/10/06 06:12:15;;;;;;;6.63;5.77;;;12.70;42.30;;;;;;10481217;28;20228;-79
2022/10/06 06:17:18;;;;;;;5.80;5.30;;;12.60;42.20;;;;;;10482997;28;20237;-79
2022/10/06 06:22:21;;;;;;;7.83;6.40;;;12.60;42.20;;;;;;10486325;28;21764;-80
2022/10/06 06:27:26;;;;;;;7.30;5.20;;;12.60;42.50;;;;;;10474195;28;20256;-82
2022/10/06 06:32:29;;;;;;;7.47;3.97;;;12.70;43.40;;;;;;10479973;28;20321;-81
2022/10/06 06:37:32;;;;;;;3.97;3.00;;;12.70;43.80;;;;;;10478710;28;20228;-81
2022/10/06 06:42:37;;;;;;;5.83;3.00;;;12.80;43.20;;;;;;10476242;28;20269;-82
2022/10/06 06:47:41;;;;;;;5.67;3.10;;;12.90;44.10;;;;;;10479811;28;20635;-81
2022/10/06 06:52:44;;;;;;;5.03;3.33;;;13.00;43.70;;;;;;10483879;28;20232;-82
2022/10/06 06:57:49;;;;;;;4.03;3.67;;;13.10;43.90;;;;;;10476632;28;20228;-82
2022/10/06 07:02:54;;;;;;;4.10;3.20;;;13.20;44.70;;;;;;10474685;28;20238;-81
2022/10/06 07:07:58;;;;;;;4.47;3.53;;;13.30;44.50;;;;;;10484230;28;20235;-81
2022/10/06 07:13:03;;;;;;;3.73;3.00;;;13.50;44.90;;;;;;10467490;28;20217;-81
2022/10/06 07:28:48;;;;;;;2.30;2.10;;;14.00;46.20;;;;;;10475291;28;20339;-81
2022/10/06 07:33:51;;;;;;;2.50;2.30;;;14.30;47.30;;;;;;10477243;28;20801;-80
2022/10/06 07:38:55;;;;;;;2.60;2.40;;;14.60;47.10;;;;;;10471676;28;20232;-81
2022/10/06 07:43:59;;;;;;;2.63;2.30;;;14.90;47.00;;;;;;10483255;28;20281;-81
2022/10/06 07:49:09;;;;;;;2.70;2.50;;;15.20;48.10;;;;;;10485438;28;20239;-81
2022/10/06 07:54:12;;;;;;;2.70;2.50;;;15.50;47.40;;;;;;10477172;28;20228;-81
2022/10/06 07:59:16;;;;;;;2.80;2.60;;;15.80;47.20;;;;;;10488097;28;20290;-81
2022/10/06 08:04:22;;;;;;;2.80;2.20;;;16.20;47.80;;;;;;10487070;28;20260;-81
2022/10/06 08:09:25;;;;;;;2.73;2.43;;;16.50;47.30;;;;;;10488190;28;20650;-82
2022/10/06 08:14:30;;;;;;;3.10;2.20;;;16.80;47.30;;;;;;10482893;28;20235;-81
2022/10/06 08:19:33;;;;;;;2.53;2.17;;;17.10;47.30;;;;;;10484997;28;20240;-80
2022/10/06 08:24:36;;;;;;;2.30;2.13;;;17.50;46.60;;;;;;10474609;28;20240;-80
2022/10/06 08:30:01;;;;;;;2.70;2.00;;;17.80;46.80;;;;;;10482201;28;21024;-80
2022/10/06 08:35:04;;;;;;;2.40;2.20;;;18.10;47.10;;;;;;10471144;28;20375;-80
2022/10/06 08:40:14;;;;;;;3.20;2.27;;;18.40;47.30;;;;;;10477649;28;20232;-80
2022/10/06 08:45:23;;;;;;;2.27;1.77;;;18.70;47.50;;;;;;10475792;28;20283;-80
2022/10/06 08:50:29;;;;;;;2.00;1.90;;;19.00;47.00;;;;;;10486398;28;20232;-80
2022/10/06 08:55:38;;;;;;;2.43;1.67;;;19.30;45.90;;;;;;10489036;28;20705;-80
2022/10/06 09:00:43;;;;;;;1.97;1.87;;;19.60;44.80;;;;;;10460555;28;20229;-81
2022/10/06 09:05:47;;;;;;;3.57;1.87;;;19.80;44.60;;;;;;10478428;28;20232;-79
2022/10/06 09:11:01;;;;;;;1.77;1.60;;;20.00;44.30;;;;;;10485671;28;20233;-80
2022/10/06 09:16:08;;;;;;;2.13;1.93;;;20.10;44.00;;;;;;10482773;28;20228;-80
2022/10/06 09:21:15;;;;;;;3.77;1.80;;;20.20;43.20;;;;;;10477715;28;20739;-80
2022/10/06 09:26:21;;;;;;;2.60;1.80;;;20.30;43.60;;;;;;10482277;28;20236;-79
2022/10/06 09:31:28;;;;;;;2.07;1.80;;;20.40;43.60;;;;;;10483774;28;20714;-82
2022/10/06 09:36:32;;;;;;;1.40;1.30;;;20.40;44.00;;;;;;10477873;28;20224;-79
2022/10/06 09:41:40;;;;;;;3.73;1.70;;;20.60;43.50;;;;;;10468863;28;20231;-77
2022/10/06 09:46:44;;;;;;;3.43;1.87;;;20.70;42.70;;;;;;10469951;28;20240;-77
2022/10/06 09:52:09;;;;;;;2.23;1.80;;;20.80;42.40;;;;;;10462028;28;20256;-77
2022/10/06 09:57:16;;;;;;;2.07;1.83;;;20.90;41.90;;;;;;10468589;28;20228;-77
2022/10/06 10:02:28;;;;;;;4.40;1.87;;;21.00;42.30;;;;;;10476885;28;20264;-79
2022/10/06 10:07:32;;;;;;;1.73;1.63;;;21.10;42.30;;;;;;10466244;28;20307;-78
2022/10/06 10:12:35;;;;;;;2.27;1.90;;;21.10;42.80;;;;;;10464199;28;20243;-78
2022/10/06 10:17:47;;;;;;;1.80;1.63;;;21.20;42.60;;;;;;10459848;28;20757;-77
2022/10/06 10:22:52;;;;;;;3.10;1.77;;;21.30;41.80;;;;;;10460363;28;20239;-77
2022/10/06 10:28:02;;;;;;;2.77;1.80;;;21.30;41.90;;;;;;10453422;28;20232;-77
2022/10/06 10:33:15;;;;;;;2.17;2.00;;;21.30;41.00;;;;;;10456289;28;20224;-77
2022/10/06 10:38:21;;;;;;;2.20;2.00;;;21.30;40.90;;;;;;10453447;28;20232;-77
2022/10/06 10:43:30;;;;;;;3.83;2.23;;;21.30;41.20;;;;;;10456589;28;20247;-77
2022/10/06 10:48:40;;;;;;;5.07;2.37;;;21.30;41.30;;;;;;10460321;28;20243;-77
2022/10/06 10:53:49;;;;;;;3.63;1.97;;;21.20;40.40;;;;;;10456273;28;20236;-77
2022/10/06 10:58:55;;;;;;;1.90;1.80;;;21.20;41.20;;;;;;10455826;28;20278;-77
2022/10/06 11:04:01;;;;;;;3.87;2.10;;;21.20;41.10;;;;;;10453365;28;20239;-76
2022/10/06 11:09:08;;;;;;;2.60;2.40;;;21.30;41.10;;;;;;10450734;28;20707;-76
2022/10/06 11:14:23;;;;;;;2.67;2.13;;;21.40;41.10;;;;;;10456270;28;20228;-76
2022/10/06 11:19:40;;;;;;;3.03;1.80;;;21.40;41.40;;;;;;10458829;28;20236;-76
2022/10/06 11:24:51;;;;;;;3.17;2.00;;;21.40;41.40;;;;;;10468302;28;20228;-76
2022/10/06 11:30:05;;;;;;;3.00;2.20;;;21.50;41.30;;;;;;10471575;28;20238;-76
2022/10/06 11:35:18;;;;;;;3.17;2.10;;;21.50;41.10;;;;;;10473035;28;20265;-76
2022/10/06 11:40:35;;;;;;;3.53;2.20;;;21.60;40.70;;;;;;10472293;28;20240;-76
2022/10/06 11:45:46;;;;;;;3.23;2.30;;;21.60;40.90;;;;;;10475065;28;20224;-76
2022/10/06 11:50:54;;;;;;;4.20;2.33;;;21.70;41.00;;;;;;10478469;28;20732;-77
2022/10/06 11:56:45;;;;;;;2.87;2.30;;;21.70;41.20;;;;;;10480154;28;20221;-78
2022/10/06 12:01:54;;;;;;;2.50;2.30;;;21.70;40.80;;;;;;10432322;28;20282;-76
2022/10/06 12:07:04;;;;;;;3.70;2.77;;;21.80;41.20;;;;;;10467177;28;20692;-76
2022/10/06 12:12:55;;;;;;;2.50;2.30;;;21.90;40.70;;;;;;10469744;28;20644;-76
2022/10/06 12:18:34;;;;;;;2.77;2.50;;;21.90;40.50;;;;;;10447668;28;20224;-77
2022/10/06 12:23:55;;;;;;;2.53;2.30;;;21.90;40.30;;;;;;10479590;28;20228;-77
2022/10/06 12:29:14;;;;;;;2.73;2.50;;;21.90;41.30;;;;;;10470304;28;20631;-77
2022/10/06 12:34:57;;;;;;;3.23;2.20;;;22.00;40.50;;;;;;10474477;28;20254;-75
2022/10/06 12:40:33;;;;;;;4.90;2.40;;;22.10;40.60;;;;;;10461844;28;20334;-76
2022/10/06 12:45:39;;;;;;;4.57;2.23;;;22.10;40.60;;;;;;10462163;28;20227;-76
2022/10/06 12:50:53;;;;;;;2.50;2.10;;;22.20;40.50;;;;;;10465105;28;20315;-75
2022/10/06 12:56:01;;;;;;;4.53;2.40;;;22.30;40.20;;;;;;10468625;28;20232;-76
2022/10/06 13:01:09;;;;;;;2.23;2.03;;;22.30;40.30;;;;;;10470798;28;20226;-76
2022/10/06 13:06:13;;;;;;;4.53;2.30;;;22.30;39.90;;;;;;10469457;28;20323;-76
2022/10/06 13:11:20;;;;;;;2.40;2.13;;;22.40;40.30;;;;;;10475770;28;20692;-76
2022/10/06 13:16:27;;;;;;;3.00;2.43;;;22.40;39.90;;;;;;10476877;28;20247;-77
2022/10/06 13:21:30;;;;;;;3.43;2.43;;;22.40;39.70;;;;;;10467680;28;20237;-75
2022/10/06 13:26:34;;;;;;;4.90;2.50;;;22.50;40.20;;;;;;10465771;28;20240;-76
2022/10/06 13:31:46;;;;;;;4.23;2.53;;;22.50;40.10;;;;;;10466799;28;20229;-77
2022/10/06 13:36:55;;;;;;;2.50;2.30;;;22.50;39.40;;;;;;10471967;28;20647;-76
2022/10/06 13:42:02;;;;;;;2.57;2.13;;;22.60;39.50;;;;;;10468547;28;20220;-76
2022/10/06 13:47:15;;;;;;;2.47;2.10;;;22.60;39.30;;;;;;10467480;28;20240;-76
2022/10/06 13:52:24;;;;;;;2.97;2.23;;;22.60;39.00;;;;;;10474748;28;20660;-77
2022/10/06 13:57:34;;;;;;;2.40;2.00;;;22.60;39.30;;;;;;10475516;28;20285;-77
2022/10/06 14:02:39;;;;;;;2.87;2.10;;;22.60;38.80;;;;;;10467821;28;20236;-78
2022/10/06 14:07:43;;;;;;;2.23;2.10;;;22.70;38.90;;;;;;10474776;28;20228;-78
2022/10/06 14:12:48;;;;;;;4.40;2.70;;;22.80;39.00;;;;;;10470378;28;20719;-78
2022/10/06 14:17:57;;;;;;;2.27;2.03;;;22.80;39.00;;;;;;10470089;28;20236;-78
2022/10/06 14:23:01;;;;;;;5.83;2.20;;;22.70;38.90;;;;;;10470720;28;20232;-76
2022/10/06 14:28:04;;;;;;;5.77;2.20;;;22.70;38.90;;;;;;10467216;28;20220;-76
2022/10/06 14:33:08;;;;;;;3.50;2.20;;;22.70;38.90;;;;;;10466207;28;20248;-76
2022/10/06 14:38:12;;;;;;;2.83;2.50;;;22.70;38.90;;;;;;10461408;28;20274;-76
2022/10/06 14:43:15;;;;;;;1.80;1.70;;;22.70;38.90;;;;;;10466541;28;20224;-76
2022/10/06 14:48:20;;;;;;;1.87;1.60;;;22.70;38.90;;;;;;10467431;28;20704;-76
2022/10/06 14:53:23;;;;;;;3.47;1.70;;;22.70;38.90;;;;;;10460520;28;20235;-76
2022/10/06 14:58:27;;;;;;;3.07;1.83;;;22.60;38.80;;;;;;10461808;28;21101;-76
2022/10/06 15:03:31;;;;;;;1.77;1.57;;;22.60;38.80;;;;;;10467318;28;20724;-76
2022/10/06 15:08:35;;;;;;;2.13;1.40;;;22.50;38.70;;;;;;10465257;28;20236;-77
2022/10/06 15:13:38;;;;;;;2.80;1.60;;;22.40;38.60;;;;;;10463029;28;20232;-76
2022/10/06 15:18:43;;;;;;;1.57;1.37;;;22.40;38.60;;;;;;10460974;28;20236;-76
2022/10/06 15:23:47;;;;;;;1.50;1.40;;;22.30;38.60;;;;;;10464710;28;20386;-76
2022/10/06 15:29:03;;;;;;;3.17;1.47;;;22.30;38.90;;;;;;10461411;28;20712;-77
2022/10/06 15:34:08;;;;;;;3.50;1.50;;;22.30;39.10;;;;;;10462526;28;20227;-76
2022/10/06 15:39:14;;;;;;;1.43;1.33;;;22.30;39.00;;;;;;10457103;28;20229;-76
2022/10/06 15:44:19;;;;;;;1.80;1.70;;;22.30;39.20;;;;;;10467252;28;20753;-76
2022/10/06 15:49:25;;;;;;;2.80;1.80;;;22.30;39.30;;;;;;10472257;28;20309;-76
2022/10/06 15:54:29;;;;;;;1.83;1.63;;;22.30;38.90;;;;;;10461869;28;20224;-76
2022/10/06 15:59:33;;;;;;;2.00;1.50;;;22.30;39.10;;;;;;10471706;28;20263;-76
2022/10/06 16:04:54;;;;;;;1.53;1.40;;;22.30;39.30;;;;;;10469252;28;20232;-76
2022/10/06 16:09:57;;;;;;;3.77;1.50;;;22.30;39.40;;;;;;10470223;28;20279;-76
2022/10/06 16:15:00;;;;;;;3.43;1.80;;;22.30;39.20;;;;;;10466306;28;20228;-76
2022/10/06 16:20:05;;;;;;;1.93;1.43;;;22.20;39.10;;;;;;10468358;28;20266;-76
2022/10/06 16:25:09;;;;;;;2.13;1.33;;;22.10;39.10;;;;;;10469067;28;20259;-76
2022/10/06 16:30:12;;;;;;;1.83;1.40;;;22.10;39.20;;;;;;10473082;28;20278;-76
2022/10/06 16:35:16;;;;;;;2.37;1.50;;;22.00;39.30;;;;;;10469254;28;20316;-76
2022/10/06 16:40:21;;;;;;;1.93;1.60;;;21.90;39.30;;;;;;10470202;28;21040;-76
2022/10/06 16:45:25;;;;;;;2.57;1.53;;;21.90;39.30;;;;;;10465449;28;20243;-76
2022/10/06 16:50:29;;;;;;;3.00;1.33;;;21.80;39.20;;;;;;10467423;28;20728;-76
2022/10/06 16:55:32;;;;;;;2.57;1.60;;;21.70;39.20;;;;;;10466480;28;20255;-76
2022/10/06 17:00:35;;;;;;;2.03;1.10;;;21.60;39.00;;;;;;10469836;28;20233;-76
2022/10/06 17:05:40;;;;;;;1.33;1.23;;;21.50;39.10;;;;;;10463298;28;20782;-76
2022/10/06 17:10:43;;;;;;;1.30;1.20;;;21.40;39.00;;;;;;10471001;28;20477;-76
2022/10/06 17:15:46;;;;;;;1.67;1.33;;;21.30;39.00;;;;;;10463335;28;20221;-76
2022/10/06 17:20:55;;;;;;;2.20;1.30;;;21.20;38.80;;;;;;10464537;28;20232;-77
2022/10/06 17:26:11;;;;;;;1.97;1.70;;;21.10;38.50;;;;;;10469111;28;20231;-77
2022/10/06 17:31:15;;;;;;;4.27;2.77;;;21.00;38.60;;;;;;10470401;28;20652;-76
2022/10/06 17:36:21;;;;;;;9.10;8.20;;;20.80;38.60;;;;;;10467242;28;20235;-77
2022/10/06 17:41:28;;;;;;;11.63;10.63;;;20.70;38.70;;;;;;10477769;28;20239;-76
2022/10/06 17:46:33;;;;;;;11.87;10.73;;;20.50;38.80;;;;;;10467606;28;20224;-77
2022/10/06 17:51:40;;;;;;;14.37;10.50;;;20.50;39.00;;;;;;10456117;28;20401;-77
2022/10/06 17:56:44;;;;;;;10.17;9.17;;;20.30;39.10;;;;;;10461142;28;20232;-77
2022/10/06 18:01:48;;;;;;;9.37;7.50;;;20.20;39.10;;;;;;10469047;28;20874;-77
2022/10/06 18:06:54;;;;;;;8.93;7.83;;;20.10;39.10;;;;;;10467825;28;20253;-77
2022/10/06 18:11:59;;;;;;;8.87;7.97;;;20.00;39.10;;;;;;10465179;28;20576;-76
2022/10/06 18:17:03;;;;;;;9.20;7.20;;;19.90;39.00;;;;;;10466478;28;20236;-76
2022/10/06 18:22:10;;;;;;;6.47;5.57;;;19.80;39.10;;;;;;10463426;28;20236;-76
2022/10/06 18:27:13;;;;;;;8.83;6.60;;;19.70;39.00;;;;;;10465182;28;20254;-76
2022/10/06 18:32:17;;;;;;;6.30;5.60;;;19.60;38.90;;;;;;10465310;28;20243;-76
2022/10/06 18:37:41;;;;;;;5.83;5.30;;;19.40;39.00;;;;;;10467468;28;20251;-76
2022/10/06 18:42:45;;;;;;;5.90;5.40;;;19.30;39.20;;;;;;10463460;28;20716;-76
2022/10/06 18:53:21;;;;;;;5.83;5.03;;;19.10;39.20;;;;;;10386808;28;20259;-76
2022/10/06 18:58:24;;;;;;;7.10;6.40;;;19.00;39.10;;;;;;10456767;28;20804;-76
2022/10/06 19:03:28;;;;;;;6.40;5.80;;;18.90;39.00;;;;;;10464305;28;20285;-76
2022/10/06 19:08:32;;;;;;;5.50;4.93;;;18.80;39.10;;;;;;10469106;28;20282;-76
2022/10/06 19:13:36;;;;;;;5.77;4.10;;;18.70;39.40;;;;;;10459985;28;20713;-76
2022/10/06 19:18:39;;;;;;;4.37;3.97;;;18.60;39.30;;;;;;10467398;28;20728;-76
2022/10/06 19:23:43;;;;;;;4.23;3.70;;;18.50;39.30;;;;;;10457689;28;20229;-76
2022/10/06 19:28:47;;;;;;;4.67;4.17;;;18.40;39.60;;;;;;10459396;28;20225;-76
2022/10/06 19:33:50;;;;;;;4.17;3.73;;;18.40;39.40;;;;;;10463512;28;20232;-76
2022/10/06 19:38:56;;;;;;;4.30;3.90;;;18.20;39.30;;;;;;10461847;28;20235;-77
2022/10/06 19:44:01;;;;;;;3.97;3.23;;;18.10;39.70;;;;;;10477449;28;20232;-77
2022/10/06 19:49:07;;;;;;;5.00;4.60;;;18.00;39.50;;;;;;10470826;28;20279;-76
2022/10/06 19:54:12;;;;;;;4.33;3.93;;;17.90;39.50;;;;;;10481704;28;20231;-79
2022/10/06 19:59:18;;;;;;;3.60;3.30;;;17.90;39.60;;;;;;10476384;28;20240;-78
2022/10/06 20:04:22;;;;;;;4.30;3.70;;;17.80;39.50;;;;;;10468064;28;20239;-78
2022/10/06 20:09:30;;;;;;;4.03;3.73;;;17.70;39.80;;;;;;10475134;28;20247;-78
2022/10/06 20:14:33;;;;;;;4.60;4.20;;;17.60;39.70;;;;;;10478606;28;20278;-78
2022/10/06 20:19:38;;;;;;;4.40;4.03;;;17.60;39.70;;;;;;10483596;28;20344;-78
2022/10/06 20:24:43;;;;;;;4.70;3.97;;;17.50;39.60;;;;;;10476966;28;20236;-78
2022/10/06 20:29:46;;;;;;;5.53;4.63;;;17.40;39.70;;;;;;10473788;28;20252;-78
2022/10/06 20:34:49;;;;;;;5.33;4.63;;;17.30;39.60;;;;;;10474802;28;20240;-78
2022/10/06 20:45:14;;;;;;;4.33;3.93;;;17.20;39.80;;;;;;10466601;28;20236;-77
2022/10/06 20:50:18;;;;;;;4.67;4.27;;;17.10;39.80;;;;;;10465842;28;20237;-77
2022/10/06 20:55:23;;;;;;;4.17;3.77;;;17.10;39.80;;;;;;10463983;28;20241;-77
2022/10/06 21:00:27;;;;;;;4.10;3.50;;;17.00;40.00;;;;;;10467814;28;20228;-77
2022/10/06 21:05:31;;;;;;;3.30;3.10;;;17.00;39.90;;;;;;10466186;28;20240;-77
2022/10/06 21:10:36;;;;;;;3.43;3.17;;;17.00;39.90;;;;;;10468210;28;20854;-77
2022/10/06 21:15:45;;;;;;;3.67;3.30;;;17.00;40.10;;;;;;10472647;28;20271;-77
2022/10/06 21:20:56;;;;;;;3.83;3.30;;;16.90;40.00;;;;;;10472462;28;20278;-77
2022/10/06 21:26:01;;;;;;;4.60;2.97;;;16.80;39.70;;;;;;10471308;28;20651;-77
2022/10/06 21:31:06;;;;;;;3.63;3.33;;;16.70;39.80;;;;;;10464243;28;20931;-77
2022/10/06 21:36:13;;;;;;;3.37;3.03;;;16.60;39.70;;;;;;10470060;28;20319;-78
2022/10/06 21:41:29;;;;;;;3.20;2.93;;;16.60;39.70;;;;;;10468141;28;20243;-77
2022/10/06 21:46:34;;;;;;;3.67;3.30;;;16.50;39.70;;;;;;10473327;28;20232;-77
2022/10/06 21:51:39;;;;;;;4.47;4.10;;;16.50;40.40;;;;;;10467780;28;20237;-77
2022/10/06 21:56:43;;;;;;;4.13;3.83;;;16.40;39.70;;;;;;10479409;28;20286;-77
2022/10/06 22:01:48;;;;;;;5.50;4.97;;;16.40;39.60;;;;;;10468905;28;20255;-77
2022/10/06 22:06:51;;;;;;;5.03;4.57;;;16.30;39.50;;;;;;10478237;28;20279;-77
2022/10/06 22:11:57;;;;;;;4.07;3.77;;;16.30;39.50;;;;;;10472069;28;20228;-77
2022/10/06 22:17:00;;;;;;;4.83;4.43;;;16.20;39.60;;;;;;10475754;28;20645;-78
2022/10/06 22:22:03;;;;;;;5.37;4.83;;;16.10;39.30;;;;;;10473326;28;20224;-77
2022/10/06 22:27:07;;;;;;;4.23;3.83;;;16.10;39.30;;;;;;10470394;28;20232;-77
2022/10/06 22:32:11;;;;;;;4.30;3.17;;;16.00;39.60;;;;;;10475653;28;20224;-77
2022/10/06 22:37:14;;;;;;;3.17;2.87;;;15.80;39.60;;;;;;10475509;28;20286;-77
2022/10/06 22:42:18;;;;;;;3.47;2.80;;;15.80;40.40;;;;;;10474385;28;20232;-77
2022/10/06 22:47:21;;;;;;;2.93;2.63;;;15.70;39.80;;;;;;10468347;28;20311;-78
2022/10/06 22:52:25;;;;;;;3.23;2.77;;;15.70;39.60;;;;;;10476374;28;20300;-77
2022/10/06 22:57:29;;;;;;;5.87;3.57;;;15.70;39.60;;;;;;10465391;28;20239;-77
2022/10/06 23:02:32;;;;;;;6.03;3.70;;;15.60;39.70;;;;;;10468268;28;20229;-77
2022/10/06 23:07:35;;;;;;;5.40;3.70;;;15.50;39.70;;;;;;10469919;28;20289;-77
2022/10/06 23:12:40;;;;;;;3.53;3.10;;;15.50;39.70;;;;;;10468709;28;20228;-77
2022/10/06 23:17:43;;;;;;;4.57;3.83;;;15.40;40.00;;;;;;10473011;28;20274;-77
2022/10/06 23:22:46;;;;;;;4.03;3.53;;;15.40;40.00;;;;;;10481153;28;20230;-77
2022/10/06 23:27:51;;;;;;;3.50;3.20;;;15.30;39.80;;;;;;10477906;28;20789;-77
2022/10/06 23:32:54;;;;;;;2.90;2.70;;;15.30;40.30;;;;;;10467909;28;20631;-77
2022/10/06 23:37:57;;;;;;;3.70;3.40;;;15.20;40.10;;;;;;10476926;28;20231;-78
2022/10/06 23:43:01;;;;;;;4.00;3.70;;;15.20;40.20;;;;;;10480686;28;20278;-77
2022/10/06 23:48:05;;;;;;;3.53;3.10;;;15.20;40.40;;;;;;10479487;28;20225;-77
2022/10/06 23:53:08;;;;;;;4.37;3.97;;;15.10;40.30;;;;;;10474682;28;20228;-77
2022/10/06 23:58:13;;;;;;;4.57;4.17;;;15.10;40.20;;;;;;10476345;28;20265;-77
